Skip to main content

Paredes De Coura - Vascões (CIM)

ID 6211213 · 41.9134, -8.4921 map

Latest reading · 2026-05-09 19:00 (Europe/Lisbon)

Temperature
9.4 °C
Humidity
97 %
Pressure
1,006.1 hPa
Precipitation
Radiation
202 W/m²
Wind speed
2.9 km/h
Wind direction
S · South

24-hour history

Time (Europe/Lisbon) Temp Humidity Pressure Rain Wind Dir
2026-05-09 19:00 9.4 °C 97 % 1,006.1 2.9 km/h S
2026-05-09 18:00 9.9 °C 98 % 1,005.1 8.6 km/h SE
2026-05-09 17:00 9.8 °C 95 % 1,005.2 5.8 km/h SE
2026-05-09 16:00 12.1 °C 80 % 1,003.9 3.6 km/h SE
2026-05-09 15:00 13.6 °C 74 % 1,003.1 12.2 km/h SE
2026-05-09 14:00 12.3 °C 80 % 1,003.4 11.5 km/h SE
2026-05-09 13:00 11.7 °C 79 % 1,004.1 13.0 km/h SE
2026-05-09 12:00 12.0 °C 78 % 1,004.6 9.7 km/h SE
2026-05-09 11:00 12.9 °C 74 % 1,004.4 7.6 km/h SE
2026-05-09 10:00 11.5 °C 77 % 1,004.8 4.7 km/h NE
2026-05-09 09:00 11.0 °C 77 % 1,004.9 4.3 km/h E
2026-05-09 08:00 10.3 °C 81 % 1,005.1 3.2 km/h SE
2026-05-09 07:00 9.8 °C 84 % 1,005.2 2.9 km/h E
2026-05-09 06:00 9.4 °C 87 % 1,005.3 3.6 km/h E
2026-05-09 05:00 9.7 °C 87 % 1,005.2 6.1 km/h S
2026-05-09 04:00 9.3 °C 91 % 1,005.3 7.2 km/h SE
2026-05-09 03:00 9.9 °C 86 % 1,005.9 4.0 km/h NE
2026-05-09 02:00 11.5 °C 68 % 1,005.9 5.4 km/h S
2026-05-09 01:00 11.1 °C 68 % 1,005.9 4.7 km/h NE
2026-05-09 00:00 10.0 °C 72 % 1,007.1 4.7 km/h E
2026-05-08 23:00 9.3 °C 79 % 1,008.2 5.0 km/h NE
2026-05-08 22:00 9.3 °C 84 % 1,008.5 3.6 km/h NE
2026-05-08 21:00 9.7 °C 85 % 1,008.5 4.7 km/h NE
2026-05-08 20:00 11.7 °C 76 % 1,007.9 2.9 km/h NE